sensor_id;sensor_type;location;lat;lon;timestamp;pressure;altitude;pressure_sealevel;temperature;humidity
49030;BME280;43337;52.070;4.508;2022-08-19T00:02:23;101491.06;;;19.22;75.85
49030;BME280;43337;52.070;4.508;2022-08-19T00:04:49;101480.38;;;19.22;75.89
49030;BME280;43337;52.070;4.508;2022-08-19T00:07:18;101452.81;;;19.09;75.96
49030;BME280;43337;52.070;4.508;2022-08-19T00:09:43;101451.22;;;19.07;76.11
49030;BME280;43337;52.070;4.508;2022-08-19T00:12:09;101457.50;;;19.06;76.24
49030;BME280;43337;52.070;4.508;2022-08-19T00:14:35;101463.41;;;19.11;76.23
49030;BME280;43337;52.070;4.508;2022-08-19T00:17:02;101467.66;;;19.13;76.31
49030;BME280;43337;52.070;4.508;2022-08-19T00:19:28;101481.00;;;19.13;76.40
49030;BME280;43337;52.070;4.508;2022-08-19T00:21:54;101479.28;;;19.12;76.49
49030;BME280;43337;52.070;4.508;2022-08-19T00:24:21;101497.22;;;19.10;76.36
49030;BME280;43337;52.070;4.508;2022-08-19T00:26:47;101473.94;;;18.99;76.73
49030;BME280;43337;52.070;4.508;2022-08-19T00:29:15;101490.16;;;19.09;76.92
49030;BME280;43337;52.070;4.508;2022-08-19T00:31:42;101456.63;;;18.92;76.65
49030;BME280;43337;52.070;4.508;2022-08-19T00:34:08;101474.03;;;18.98;76.73
49030;BME280;43337;52.070;4.508;2022-08-19T00:36:33;101478.44;;;18.99;76.78
49030;BME280;43337;52.070;4.508;2022-08-19T00:38:59;101476.16;;;18.93;76.88
49030;BME280;43337;52.070;4.508;2022-08-19T00:41:25;101491.66;;;19.00;76.85
49030;BME280;43337;52.070;4.508;2022-08-19T00:46:33;101483.84;;;18.97;77.11
49030;BME280;43337;52.070;4.508;2022-08-19T00:49:04;101475.50;;;18.89;77.04
49030;BME280;43337;52.070;4.508;2022-08-19T00:51:31;101486.94;;;18.91;77.37
49030;BME280;43337;52.070;4.508;2022-08-19T00:53:58;101495.81;;;18.92;77.13
49030;BME280;43337;52.070;4.508;2022-08-19T00:56:26;101478.81;;;18.80;77.08
49030;BME280;43337;52.070;4.508;2022-08-19T00:58:52;101500.50;;;18.88;77.39
49030;BME280;43337;52.070;4.508;2022-08-19T01:01:19;101496.13;;;18.87;77.33
49030;BME280;43337;52.070;4.508;2022-08-19T01:03:44;101489.06;;;18.86;77.51
49030;BME280;43337;52.070;4.508;2022-08-19T01:06:09;101503.34;;;18.85;77.48
49030;BME280;43337;52.070;4.508;2022-08-19T01:08:35;101488.63;;;18.80;77.38
49030;BME280;43337;52.070;4.508;2022-08-19T01:11:00;101475.81;;;18.72;77.50
49030;BME280;43337;52.070;4.508;2022-08-19T01:13:29;101505.38;;;18.82;77.56
49030;BME280;43337;52.070;4.508;2022-08-19T01:16:00;101492.44;;;18.75;77.58
49030;BME280;43337;52.070;4.508;2022-08-19T01:18:27;101483.97;;;18.69;77.77
49030;BME280;43337;52.070;4.508;2022-08-19T01:20:57;101514.44;;;18.79;77.71
49030;BME280;43337;52.070;4.508;2022-08-19T01:23:25;101492.81;;;18.69;77.79
49030;BME280;43337;52.070;4.508;2022-08-19T01:28:37;101488.84;;;18.62;77.99
49030;BME280;43337;52.070;4.508;2022-08-19T01:31:03;101489.88;;;18.60;77.93
49030;BME280;43337;52.070;4.508;2022-08-19T01:33:29;101500.91;;;18.68;77.83
49030;BME280;43337;52.070;4.508;2022-08-19T01:36:04;101465.66;;;18.50;78.04
49030;BME280;43337;52.070;4.508;2022-08-19T01:38:30;101508.81;;;18.69;78.20
49030;BME280;43337;52.070;4.508;2022-08-19T01:40:57;101502.84;;;18.66;78.27
49030;BME280;43337;52.070;4.508;2022-08-19T01:43:22;101500.28;;;18.64;78.37
49030;BME280;43337;52.070;4.508;2022-08-19T01:45:47;101508.91;;;18.68;78.46
49030;BME280;43337;52.070;4.508;2022-08-19T01:48:13;101457.59;;;18.37;78.48
49030;BME280;43337;52.070;4.508;2022-08-19T01:50:39;101489.16;;;18.58;78.58
49030;BME280;43337;52.070;4.508;2022-08-19T01:53:09;101503.81;;;18.65;78.66
49030;BME280;43337;52.070;4.508;2022-08-19T01:55:37;101479.06;;;18.48;78.88
49030;BME280;43337;52.070;4.508;2022-08-19T01:58:04;101490.84;;;18.59;79.13
49030;BME280;43337;52.070;4.508;2022-08-19T02:00:31;101498.34;;;18.66;78.96
49030;BME280;43337;52.070;4.508;2022-08-19T02:02:57;101460.22;;;18.51;78.99
49030;BME280;43337;52.070;4.508;2022-08-19T02:05:23;101491.31;;;18.65;79.10
49030;BME280;43337;52.070;4.508;2022-08-19T02:07:48;101490.34;;;18.66;79.22
49030;BME280;43337;52.070;4.508;2022-08-19T02:10:18;101487.69;;;18.66;79.18
49030;BME280;43337;52.070;4.508;2022-08-19T02:12:44;101483.50;;;18.62;79.34
49030;BME280;43337;52.070;4.508;2022-08-19T02:15:10;101488.00;;;18.62;79.30
49030;BME280;43337;52.070;4.508;2022-08-19T02:17:35;101496.53;;;18.67;79.54
49030;BME280;43337;52.070;4.508;2022-08-19T02:20:01;101499.00;;;18.70;79.72
49030;BME280;43337;52.070;4.508;2022-08-19T02:22:27;101488.34;;;18.70;79.86
49030;BME280;43337;52.070;4.508;2022-08-19T02:24:53;101483.13;;;18.68;80.02
49030;BME280;43337;52.070;4.508;2022-08-19T02:27:19;101495.22;;;18.74;80.20
49030;BME280;43337;52.070;4.508;2022-08-19T02:29:49;101494.25;;;18.75;80.37
49030;BME280;43337;52.070;4.508;2022-08-19T02:32:16;101478.72;;;18.67;80.53
49030;BME280;43337;52.070;4.508;2022-08-19T02:34:41;101496.84;;;18.76;80.50
49030;BME280;43337;52.070;4.508;2022-08-19T02:37:07;101488.34;;;18.70;80.63
49030;BME280;43337;52.070;4.508;2022-08-19T02:39:53;101477.88;;;18.67;80.71
49030;BME280;43337;52.070;4.508;2022-08-19T02:42:18;101480.16;;;18.73;80.84
49030;BME280;43337;52.070;4.508;2022-08-19T02:44:43;101486.91;;;18.78;80.99
49030;BME280;43337;52.070;4.508;2022-08-19T02:47:09;101473.13;;;18.72;80.94
49030;BME280;43337;52.070;4.508;2022-08-19T02:49:35;101477.06;;;18.79;80.89
49030;BME280;43337;52.070;4.508;2022-08-19T02:52:01;101452.91;;;18.68;81.03
49030;BME280;43337;52.070;4.508;2022-08-19T02:54:26;101465.00;;;18.73;81.03
49030;BME280;43337;52.070;4.508;2022-08-19T02:56:53;101430.47;;;18.58;81.01
49030;BME280;43337;52.070;4.508;2022-08-19T02:59:18;101445.13;;;18.65;81.14
49030;BME280;43337;52.070;4.508;2022-08-19T03:01:45;101443.31;;;18.65;81.47
49030;BME280;43337;52.070;4.508;2022-08-19T03:04:13;101455.06;;;18.75;81.32
49030;BME280;43337;52.070;4.508;2022-08-19T03:06:42;101461.94;;;18.80;81.19
49030;BME280;43337;52.070;4.508;2022-08-19T03:09:08;101450.81;;;18.73;81.09
49030;BME280;43337;52.070;4.508;2022-08-19T03:11:34;101432.44;;;18.68;81.27
49030;BME280;43337;52.070;4.508;2022-08-19T03:14:01;101455.72;;;18.79;81.25
49030;BME280;43337;52.070;4.508;2022-08-19T03:16:29;101452.22;;;18.78;81.45
49030;BME280;43337;52.070;4.508;2022-08-19T03:18:56;101450.81;;;18.73;81.55
49030;BME280;43337;52.070;4.508;2022-08-19T03:21:26;101433.81;;;18.61;81.44
49030;BME280;43337;52.070;4.508;2022-08-19T03:24:00;101444.34;;;18.63;81.50
49030;BME280;43337;52.070;4.508;2022-08-19T03:26:26;101463.41;;;18.71;81.79
49030;BME280;43337;52.070;4.508;2022-08-19T03:28:51;101449.50;;;18.66;81.55
49030;BME280;43337;52.070;4.508;2022-08-19T03:31:21;101456.44;;;18.68;81.50
49030;BME280;43337;52.070;4.508;2022-08-19T03:33:48;101443.81;;;18.58;81.67
49030;BME280;43337;52.070;4.508;2022-08-19T03:36:20;101456.53;;;18.67;81.50
49030;BME280;43337;52.070;4.508;2022-08-19T03:38:50;101424.81;;;18.49;81.72
49030;BME280;43337;52.070;4.508;2022-08-19T03:41:19;101438.69;;;18.54;81.79
49030;BME280;43337;52.070;4.508;2022-08-19T03:43:45;101452.28;;;18.64;81.96
49030;BME280;43337;52.070;4.508;2022-08-19T03:46:17;101443.56;;;18.48;82.09
49030;BME280;43337;52.070;4.508;2022-08-19T03:48:46;101445.81;;;18.54;81.88
49030;BME280;43337;52.070;4.508;2022-08-19T03:51:23;101456.94;;;18.61;81.96
49030;BME280;43337;52.070;4.508;2022-08-19T03:53:51;101451.69;;;18.59;82.14
49030;BME280;43337;52.070;4.508;2022-08-19T03:56:17;101458.19;;;18.55;82.28
49030;BME280;43337;52.070;4.508;2022-08-19T03:58:42;101456.50;;;18.54;82.22
49030;BME280;43337;52.070;4.508;2022-08-19T04:01:17;101462.69;;;18.54;82.34
49030;BME280;43337;52.070;4.508;2022-08-19T04:03:42;101473.66;;;18.50;82.35
49030;BME280;43337;52.070;4.508;2022-08-19T04:06:13;101457.31;;;18.42;82.07
49030;BME280;43337;52.070;4.508;2022-08-19T04:08:40;101443.50;;;18.35;82.11
49030;BME280;43337;52.070;4.508;2022-08-19T04:11:12;101447.88;;;18.36;82.40
49030;BME280;43337;52.070;4.508;2022-08-19T04:13:38;101471.19;;;18.47;82.56
49030;BME280;43337;52.070;4.508;2022-08-19T04:16:04;101453.13;;;18.38;82.57
49030;BME280;43337;52.070;4.508;2022-08-19T04:18:30;101453.31;;;18.35;82.86
49030;BME280;43337;52.070;4.508;2022-08-19T04:20:56;101471.78;;;18.38;83.04
49030;BME280;43337;52.070;4.508;2022-08-19T04:23:22;101447.72;;;18.25;83.22
49030;BME280;43337;52.070;4.508;2022-08-19T04:25:47;101473.19;;;18.43;83.00
49030;BME280;43337;52.070;4.508;2022-08-19T04:28:13;101461.63;;;18.30;83.06
49030;BME280;43337;52.070;4.508;2022-08-19T04:30:43;101486.72;;;18.40;83.16
49030;BME280;43337;52.070;4.508;2022-08-19T04:33:14;101482.47;;;18.38;83.26
49030;BME280;43337;52.070;4.508;2022-08-19T04:35:42;101456.38;;;18.28;83.60
49030;BME280;43337;52.070;4.508;2022-08-19T04:38:09;101448.56;;;18.25;83.49
49030;BME280;43337;52.070;4.508;2022-08-19T04:40:40;101456.28;;;18.30;83.41
49030;BME280;43337;52.070;4.508;2022-08-19T04:43:24;101464.72;;;18.37;83.67
49030;BME280;43337;52.070;4.508;2022-08-19T04:45:49;101459.41;;;18.37;83.78
49030;BME280;43337;52.070;4.508;2022-08-19T04:48:17;101461.78;;;18.41;83.55
49030;BME280;43337;52.070;4.508;2022-08-19T04:50:57;101475.66;;;18.46;83.77
49030;BME280;43337;52.070;4.508;2022-08-19T04:53:28;101480.88;;;18.48;83.82
49030;BME280;43337;52.070;4.508;2022-08-19T04:55:56;101479.06;;;18.48;84.34
49030;BME280;43337;52.070;4.508;2022-08-19T04:58:24;101484.31;;;18.50;84.01
49030;BME280;43337;52.070;4.508;2022-08-19T05:00:50;101482.50;;;18.50;84.33
49030;BME280;43337;52.070;4.508;2022-08-19T05:03:15;101466.81;;;18.46;84.11
49030;BME280;43337;52.070;4.508;2022-08-19T05:05:42;101483.16;;;18.54;84.41
49030;BME280;43337;52.070;4.508;2022-08-19T05:08:08;101484.00;;;18.54;84.52
49030;BME280;43337;52.070;4.508;2022-08-19T05:10:36;101494.38;;;18.59;84.35
49030;BME280;43337;52.070;4.508;2022-08-19T05:13:02;101494.19;;;18.62;84.55
49030;BME280;43337;52.070;4.508;2022-08-19T05:15:28;101492.16;;;18.66;84.47
49030;BME280;43337;52.070;4.508;2022-08-19T05:17:54;101471.66;;;18.53;84.39
49030;BME280;43337;52.070;4.508;2022-08-19T05:20:38;101484.91;;;18.68;84.40
49030;BME280;43337;52.070;4.508;2022-08-19T05:23:22;101482.22;;;18.68;84.48
49030;BME280;43337;52.070;4.508;2022-08-19T05:25:47;101485.31;;;18.76;84.52
49030;BME280;43337;52.070;4.508;2022-08-19T05:28:13;101488.19;;;18.73;84.31
49030;BME280;43337;52.070;4.508;2022-08-19T05:30:38;101483.56;;;18.75;84.45
49030;BME280;43337;52.070;4.508;2022-08-19T05:33:05;101492.03;;;18.82;84.51
49030;BME280;43337;52.070;4.508;2022-08-19T05:35:31;101478.16;;;18.76;84.55
49030;BME280;43337;52.070;4.508;2022-08-19T05:37:57;101467.38;;;18.78;84.61
49030;BME280;43337;52.070;4.508;2022-08-19T05:40:22;101466.84;;;18.73;84.57
49030;BME280;43337;52.070;4.508;2022-08-19T05:42:47;101453.66;;;18.70;84.89
49030;BME280;43337;52.070;4.508;2022-08-19T05:45:14;101451.00;;;18.70;84.70
49030;BME280;43337;52.070;4.508;2022-08-19T05:47:40;101454.16;;;18.76;84.77
49030;BME280;43337;52.070;4.508;2022-08-19T05:50:05;101481.69;;;18.90;84.81
49030;BME280;43337;52.070;4.508;2022-08-19T05:52:31;101459.16;;;18.81;84.88
49030;BME280;43337;52.070;4.508;2022-08-19T05:54:56;101466.84;;;18.86;84.74
49030;BME280;43337;52.070;4.508;2022-08-19T05:57:23;101480.44;;;18.95;85.00
49030;BME280;43337;52.070;4.508;2022-08-19T05:59:49;101445.19;;;18.77;84.73
49030;BME280;43337;52.070;4.508;2022-08-19T06:02:16;101482.88;;;18.98;85.03
49030;BME280;43337;52.070;4.508;2022-08-19T06:04:41;101479.28;;;18.99;84.94
49030;BME280;43337;52.070;4.508;2022-08-19T06:07:10;101480.59;;;19.07;85.02
49030;BME280;43337;52.070;4.508;2022-08-19T06:09:35;101463.47;;;18.96;84.99
49030;BME280;43337;52.070;4.508;2022-08-19T06:12:02;101478.44;;;19.12;84.84
49030;BME280;43337;52.070;4.508;2022-08-19T06:14:31;101459.63;;;19.00;85.26
49030;BME280;43337;52.070;4.508;2022-08-19T06:16:57;101482.50;;;19.17;85.06
49030;BME280;43337;52.070;4.508;2022-08-19T06:19:27;101485.81;;;19.21;85.05
49030;BME280;43337;52.070;4.508;2022-08-19T06:21:55;101490.94;;;19.24;84.94
49030;BME280;43337;52.070;4.508;2022-08-19T06:24:23;101486.56;;;19.23;85.01
49030;BME280;43337;52.070;4.508;2022-08-19T06:26:51;101489.69;;;19.30;84.90
49030;BME280;43337;52.070;4.508;2022-08-19T06:29:19;101484.22;;;19.31;84.90
49030;BME280;43337;52.070;4.508;2022-08-19T06:31:47;101466.06;;;19.23;84.89
49030;BME280;43337;52.070;4.508;2022-08-19T06:34:14;101460.41;;;19.28;84.79
49030;BME280;43337;52.070;4.508;2022-08-19T06:36:42;101470.47;;;19.37;84.77
49030;BME280;43337;52.070;4.508;2022-08-19T06:39:18;101482.19;;;19.47;84.79
49030;BME280;43337;52.070;4.508;2022-08-19T06:41:47;101488.31;;;19.49;85.00
49030;BME280;43337;52.070;4.508;2022-08-19T06:44:13;101488.81;;;19.55;84.58
49030;BME280;43337;52.070;4.508;2022-08-19T06:46:40;101483.84;;;19.63;84.66
49030;BME280;43337;52.070;4.508;2022-08-19T06:49:06;101471.31;;;19.63;84.58
49030;BME280;43337;52.070;4.508;2022-08-19T06:51:36;101483.72;;;19.77;84.76
49030;BME280;43337;52.070;4.508;2022-08-19T06:54:02;101472.50;;;19.72;84.55
49030;BME280;43337;52.070;4.508;2022-08-19T06:56:29;101458.28;;;19.71;84.46
49030;BME280;43337;52.070;4.508;2022-08-19T06:59:10;101486.56;;;19.99;84.37
49030;BME280;43337;52.070;4.508;2022-08-19T07:01:37;101488.69;;;20.07;84.12
49030;BME280;43337;52.070;4.508;2022-08-19T07:04:05;101482.50;;;20.07;84.12
49030;BME280;43337;52.070;4.508;2022-08-19T07:06:31;101490.81;;;20.15;84.09
49030;BME280;43337;52.070;4.508;2022-08-19T07:08:57;101475.13;;;20.10;83.71
49030;BME280;43337;52.070;4.508;2022-08-19T07:11:23;101498.28;;;20.22;83.90
49030;BME280;43337;52.070;4.508;2022-08-19T07:13:49;101489.06;;;20.27;83.90
49030;BME280;43337;52.070;4.508;2022-08-19T07:16:17;101499.84;;;20.38;83.80
49030;BME280;43337;52.070;4.508;2022-08-19T07:18:45;101506.47;;;20.45;83.55
49030;BME280;43337;52.070;4.508;2022-08-19T07:21:18;101512.00;;;20.55;83.11
49030;BME280;43337;52.070;4.508;2022-08-19T07:23:45;101500.66;;;20.51;82.98
49030;BME280;43337;52.070;4.508;2022-08-19T07:26:13;101518.09;;;20.57;83.02
49030;BME280;43337;52.070;4.508;2022-08-19T07:28:39;101519.69;;;20.59;82.91
49030;BME280;43337;52.070;4.508;2022-08-19T07:31:07;101515.09;;;20.61;82.69
49030;BME280;43337;52.070;4.508;2022-08-19T07:33:34;101506.44;;;20.58;82.93
49030;BME280;43337;52.070;4.508;2022-08-19T07:36:01;101492.84;;;20.61;82.71
49030;BME280;43337;52.070;4.508;2022-08-19T07:38:26;101515.66;;;20.78;82.29
49030;BME280;43337;52.070;4.508;2022-08-19T07:40:51;101501.91;;;20.82;82.50
49030;BME280;43337;52.070;4.508;2022-08-19T07:43:17;101513.88;;;20.89;82.37
49030;BME280;43337;52.070;4.508;2022-08-19T07:45:50;101514.50;;;20.93;82.16
49030;BME280;43337;52.070;4.508;2022-08-19T07:48:16;101485.34;;;20.77;81.74
49030;BME280;43337;52.070;4.508;2022-08-19T07:50:41;101506.34;;;20.94;81.92
49030;BME280;43337;52.070;4.508;2022-08-19T07:53:06;101509.53;;;21.00;81.77
49030;BME280;43337;52.070;4.508;2022-08-19T07:55:32;101472.81;;;20.78;81.36
49030;BME280;43337;52.070;4.508;2022-08-19T07:57:59;101490.00;;;20.86;81.40
49030;BME280;43337;52.070;4.508;2022-08-19T08:00:25;101520.88;;;21.03;80.94
49030;BME280;43337;52.070;4.508;2022-08-19T08:02:52;101500.00;;;20.84;81.18
49030;BME280;43337;52.070;4.508;2022-08-19T08:05:18;101480.34;;;20.72;81.11
49030;BME280;43337;52.070;4.508;2022-08-19T08:08:02;101524.22;;;20.94;81.03
49030;BME280;43337;52.070;4.508;2022-08-19T08:10:46;101527.66;;;20.96;81.02
49030;BME280;43337;52.070;4.508;2022-08-19T08:13:11;101512.16;;;20.88;81.11
49030;BME280;43337;52.070;4.508;2022-08-19T08:15:38;101527.53;;;20.97;81.19
49030;BME280;43337;52.070;4.508;2022-08-19T08:18:04;101518.78;;;20.95;81.13
49030;BME280;43337;52.070;4.508;2022-08-19T08:20:29;101515.63;;;21.02;81.26
49030;BME280;43337;52.070;4.508;2022-08-19T08:22:55;101529.56;;;21.18;81.15
49030;BME280;43337;52.070;4.508;2022-08-19T08:25:38;101523.09;;;21.20;81.20
49030;BME280;43337;52.070;4.508;2022-08-19T08:28:04;101515.09;;;21.32;80.85
49030;BME280;43337;52.070;4.508;2022-08-19T08:30:31;101542.22;;;21.51;80.67
49030;BME280;43337;52.070;4.508;2022-08-19T08:32:58;101533.09;;;21.54;80.53
49030;BME280;43337;52.070;4.508;2022-08-19T08:35:24;101537.72;;;21.52;80.16
49030;BME280;43337;52.070;4.508;2022-08-19T08:37:51;101546.88;;;21.60;80.37
49030;BME280;43337;52.070;4.508;2022-08-19T08:40:23;101542.09;;;21.64;79.82
49030;BME280;43337;52.070;4.508;2022-08-19T08:46:15;101540.78;;;21.69;79.19
49030;BME280;43337;52.070;4.508;2022-08-19T08:48:56;101531.66;;;21.72;79.21
49030;BME280;43337;52.070;4.508;2022-08-19T08:51:42;101542.75;;;21.90;79.33
49030;BME280;43337;52.070;4.508;2022-08-19T08:54:12;101547.66;;;22.07;79.07
49030;BME280;43337;52.070;4.508;2022-08-19T08:56:39;101494.00;;;21.96;78.66
49030;BME280;43337;52.070;4.508;2022-08-19T08:59:14;101545.59;;;22.33;78.26
49030;BME280;43337;52.070;4.508;2022-08-19T09:01:42;101522.53;;;22.31;77.93
49030;BME280;43337;52.070;4.508;2022-08-19T09:04:07;101528.59;;;22.44;77.36
49030;BME280;43337;52.070;4.508;2022-08-19T09:09:29;101542.13;;;22.54;76.11
49030;BME280;43337;52.070;4.508;2022-08-19T09:17:13;101547.59;;;22.52;75.10
49030;BME280;43337;52.070;4.508;2022-08-19T09:20:25;101550.03;;;22.55;74.62
49030;BME280;43337;52.070;4.508;2022-08-19T09:22:44;101541.66;;;22.49;74.50
49030;BME280;43337;52.070;4.508;2022-08-19T09:25:12;101557.84;;;22.58;74.42
49030;BME280;43337;52.070;4.508;2022-08-19T09:27:39;101540.91;;;22.47;74.35
49030;BME280;43337;52.070;4.508;2022-08-19T09:30:06;101556.88;;;22.48;74.01
49030;BME280;43337;52.070;4.508;2022-08-19T09:32:32;101558.22;;;22.54;73.97
49030;BME280;43337;52.070;4.508;2022-08-19T09:34:58;101557.03;;;22.47;74.38
49030;BME280;43337;52.070;4.508;2022-08-19T09:37:25;101553.97;;;22.40;74.19
49030;BME280;43337;52.070;4.508;2022-08-19T09:39:52;101568.59;;;22.47;74.45
49030;BME280;43337;52.070;4.508;2022-08-19T09:42:18;101562.88;;;22.40;74.31
49030;BME280;43337;52.070;4.508;2022-08-19T09:44:43;101558.38;;;22.41;74.60
49030;BME280;43337;52.070;4.508;2022-08-19T09:47:10;101567.75;;;22.47;74.42
49030;BME280;43337;52.070;4.508;2022-08-19T09:49:37;101556.53;;;22.41;74.17
49030;BME280;43337;52.070;4.508;2022-08-19T09:52:05;101569.59;;;22.46;74.42
49030;BME280;43337;52.070;4.508;2022-08-19T09:54:31;101574.56;;;22.51;74.18
49030;BME280;43337;52.070;4.508;2022-08-19T09:56:58;101574.56;;;22.51;74.15
49030;BME280;43337;52.070;4.508;2022-08-19T09:59:28;101576.16;;;22.53;73.91
49030;BME280;43337;52.070;4.508;2022-08-19T10:01:53;101552.88;;;22.42;73.94
49030;BME280;43337;52.070;4.508;2022-08-19T10:04:19;101565.28;;;22.55;73.93
49030;BME280;43337;52.070;4.508;2022-08-19T10:06:46;101564.06;;;22.59;73.48
49030;BME280;43337;52.070;4.508;2022-08-19T10:09:14;101566.66;;;22.60;73.69
49030;BME280;43337;52.070;4.508;2022-08-19T10:11:42;101581.59;;;22.74;73.15
49030;BME280;43337;52.070;4.508;2022-08-19T10:14:08;101559.13;;;22.75;73.13
49030;BME280;43337;52.070;4.508;2022-08-19T10:16:35;101567.06;;;22.88;72.79
49030;BME280;43337;52.070;4.508;2022-08-19T10:19:01;101560.63;;;22.79;72.61
49030;BME280;43337;52.070;4.508;2022-08-19T10:21:30;101566.19;;;22.87;72.44
49030;BME280;43337;52.070;4.508;2022-08-19T10:23:59;101572.78;;;22.95;72.42
49030;BME280;43337;52.070;4.508;2022-08-19T10:26:30;101562.78;;;22.97;72.39
49030;BME280;43337;52.070;4.508;2022-08-19T10:28:56;101568.81;;;23.10;72.37
49030;BME280;43337;52.070;4.508;2022-08-19T10:31:32;101564.78;;;23.15;71.58
49030;BME280;43337;52.070;4.508;2022-08-19T10:33:59;101571.13;;;23.14;70.89
49030;BME280;43337;52.070;4.508;2022-08-19T10:36:28;101573.09;;;23.12;70.76
49030;BME280;43337;52.070;4.508;2022-08-19T10:38:55;101566.13;;;23.10;70.83
49030;BME280;43337;52.070;4.508;2022-08-19T10:41:27;101543.72;;;23.00;71.01
49030;BME280;43337;52.070;4.508;2022-08-19T10:43:55;101549.91;;;23.11;71.07
49030;BME280;43337;52.070;4.508;2022-08-19T10:46:23;101558.09;;;23.31;70.95
49030;BME280;43337;52.070;4.508;2022-08-19T10:48:49;101557.19;;;23.42;70.63
49030;BME280;43337;52.070;4.508;2022-08-19T10:51:16;101563.16;;;23.45;70.07
49030;BME280;43337;52.070;4.508;2022-08-19T10:54:01;101542.69;;;23.33;69.50
49030;BME280;43337;52.070;4.508;2022-08-19T10:56:27;101559.69;;;23.33;69.45
49030;BME280;43337;52.070;4.508;2022-08-19T10:59:12;101554.63;;;23.19;69.61
49030;BME280;43337;52.070;4.508;2022-08-19T11:01:40;101560.84;;;23.20;69.79
49030;BME280;43337;52.070;4.508;2022-08-19T11:04:05;101565.75;;;23.14;69.58
49030;BME280;43337;52.070;4.508;2022-08-19T11:06:35;101562.88;;;23.06;70.23
49030;BME280;43337;52.070;4.508;2022-08-19T11:09:02;101555.81;;;22.94;70.59
49030;BME280;43337;52.070;4.508;2022-08-19T11:11:28;101578.84;;;23.08;70.44
49030;BME280;43337;52.070;4.508;2022-08-19T11:13:53;101558.59;;;23.04;70.75
49030;BME280;43337;52.070;4.508;2022-08-19T11:16:22;101571.38;;;23.11;70.73
49030;BME280;43337;52.070;4.508;2022-08-19T11:18:54;101554.22;;;23.03;70.81
49030;BME280;43337;52.070;4.508;2022-08-19T11:23:47;101566.13;;;23.10;70.72
49030;BME280;43337;52.070;4.508;2022-08-19T11:26:14;101564.78;;;23.15;70.33
49030;BME280;43337;52.070;4.508;2022-08-19T11:28:39;101569.41;;;23.13;70.40
49030;BME280;43337;52.070;4.508;2022-08-19T11:31:12;101560.38;;;23.14;70.58
49030;BME280;43337;52.070;4.508;2022-08-19T11:33:38;101547.59;;;23.07;70.51
49030;BME280;43337;52.070;4.508;2022-08-19T11:36:04;101564.19;;;23.12;70.20
49030;BME280;43337;52.070;4.508;2022-08-19T11:38:29;101566.13;;;23.10;70.66
49030;BME280;43337;52.070;4.508;2022-08-19T11:41:01;101581.88;;;23.14;70.41
49030;BME280;43337;52.070;4.508;2022-08-19T11:43:27;101575.53;;;23.15;70.50
49030;BME280;43337;52.070;4.508;2022-08-19T11:45:54;101576.38;;;23.16;70.06
49030;BME280;43337;52.070;4.508;2022-08-19T11:48:20;101567.13;;;23.09;70.29
49030;BME280;43337;52.070;4.508;2022-08-19T11:50:48;101560.53;;;23.02;70.35
49030;BME280;43337;52.070;4.508;2022-08-19T11:53:13;101591.03;;;23.12;70.27
49030;BME280;43337;52.070;4.508;2022-08-19T11:55:39;101588.84;;;23.06;70.88
49030;BME280;43337;52.070;4.508;2022-08-19T11:58:05;101581.31;;;23.00;71.53
49030;BME280;43337;52.070;4.508;2022-08-19T12:00:32;101578.16;;;22.95;72.30
49030;BME280;43337;52.070;4.508;2022-08-19T12:03:00;101581.81;;;22.94;72.15
49030;BME280;43337;52.070;4.508;2022-08-19T12:05:25;101576.19;;;22.85;72.54
49030;BME280;43337;52.070;4.508;2022-08-19T12:07:51;101590.38;;;22.99;72.83
49030;BME280;43337;52.070;4.508;2022-08-19T12:10:16;101575.34;;;22.96;73.23
49030;BME280;43337;52.070;4.508;2022-08-19T12:12:42;101568.88;;;22.99;73.18
49030;BME280;43337;52.070;4.508;2022-08-19T12:15:09;101570.78;;;23.08;73.40
49030;BME280;43337;52.070;4.508;2022-08-19T12:17:37;101574.88;;;23.23;73.22
49030;BME280;43337;52.070;4.508;2022-08-19T12:20:03;101569.34;;;23.25;72.91
49030;BME280;43337;52.070;4.508;2022-08-19T12:22:29;101558.50;;;23.26;72.88
49030;BME280;43337;52.070;4.508;2022-08-19T12:24:55;101581.13;;;23.45;72.46
49030;BME280;43337;52.070;4.508;2022-08-19T12:27:20;101581.69;;;23.48;72.41
49030;BME280;43337;52.070;4.508;2022-08-19T12:29:46;101549.53;;;23.37;72.07
49030;BME280;43337;52.070;4.508;2022-08-19T12:32:11;101562.44;;;23.43;71.35
49030;BME280;43337;52.070;4.508;2022-08-19T12:34:38;101563.75;;;23.49;71.26
49030;BME280;43337;52.070;4.508;2022-08-19T12:37:05;101566.16;;;23.52;71.22
49030;BME280;43337;52.070;4.508;2022-08-19T12:39:41;101562.63;;;23.51;71.31
49030;BME280;43337;52.070;4.508;2022-08-19T12:42:08;101568.16;;;23.50;71.31
49030;BME280;43337;52.070;4.508;2022-08-19T12:44:35;101569.84;;;23.51;71.23
49030;BME280;43337;52.070;4.508;2022-08-19T12:47:01;101551.03;;;23.51;71.42
49030;BME280;43337;52.070;4.508;2022-08-19T12:49:29;101561.66;;;23.73;71.73
49030;BME280;43337;52.070;4.508;2022-08-19T12:51:54;101533.53;;;23.77;71.44
49030;BME280;43337;52.070;4.508;2022-08-19T12:54:19;101551.44;;;23.98;71.10
49030;BME280;43337;52.070;4.508;2022-08-19T12:56:45;101565.66;;;24.09;70.86
49030;BME280;43337;52.070;4.508;2022-08-19T12:59:10;101562.00;;;24.10;70.20
49030;BME280;43337;52.070;4.508;2022-08-19T13:01:36;101545.81;;;24.01;69.74
49030;BME280;43337;52.070;4.508;2022-08-19T13:04:02;101549.47;;;24.00;69.62
49030;BME280;43337;52.070;4.508;2022-08-19T13:06:27;101531.59;;;23.89;69.39
49030;BME280;43337;52.070;4.508;2022-08-19T13:08:54;101562.97;;;24.09;69.54
49030;BME280;43337;52.070;4.508;2022-08-19T13:11:20;101562.59;;;24.24;69.35
49030;BME280;43337;52.070;4.508;2022-08-19T13:13:50;101542.81;;;24.34;69.41